sensor_id;sensor_type;location;lat;lon;timestamp;pressure;altitude;pressure_sealevel;temperature;humidity
23303;BME280;11820;48.738;9.092;2023-09-19T00:01:22;95917.41;;;17.50;100.00
23303;BME280;11820;48.738;9.092;2023-09-19T00:03:47;95931.84;;;17.58;100.00
23303;BME280;11820;48.738;9.092;2023-09-19T00:06:13;95939.16;;;17.56;100.00
23303;BME280;11820;48.738;9.092;2023-09-19T00:08:41;95936.53;;;17.34;100.00
23303;BME280;11820;48.738;9.092;2023-09-19T00:11:09;95935.94;;;17.49;100.00
23303;BME280;11820;48.738;9.092;2023-09-19T00:13:36;95937.47;;;17.45;100.00
23303;BME280;11820;48.738;9.092;2023-09-19T00:16:01;95939.81;;;17.46;100.00
23303;BME280;11820;48.738;9.092;2023-09-19T00:18:26;95936.97;;;17.48;100.00
23303;BME280;11820;48.738;9.092;2023-09-19T00:20:58;95936.75;;;17.49;100.00
23303;BME280;11820;48.738;9.092;2023-09-19T00:23:24;95937.53;;;17.50;100.00
23303;BME280;11820;48.738;9.092;2023-09-19T00:25:50;95925.66;;;17.42;100.00
23303;BME280;11820;48.738;9.092;2023-09-19T00:28:16;95932.78;;;17.47;100.00
23303;BME280;11820;48.738;9.092;2023-09-19T00:30:45;95928.28;;;17.42;100.00
23303;BME280;11820;48.738;9.092;2023-09-19T00:33:11;95932.19;;;17.40;100.00
23303;BME280;11820;48.738;9.092;2023-09-19T00:35:47;95937.50;;;17.28;100.00
23303;BME280;11820;48.738;9.092;2023-09-19T00:38:12;95937.19;;;17.46;100.00
23303;BME280;11820;48.738;9.092;2023-09-19T00:40:44;95948.41;;;17.42;100.00
23303;BME280;11820;48.738;9.092;2023-09-19T00:43:09;95945.91;;;17.52;100.00
23303;BME280;11820;48.738;9.092;2023-09-19T00:45:36;95949.59;;;17.56;100.00
23303;BME280;11820;48.738;9.092;2023-09-19T00:48:04;95950.22;;;17.41;100.00
23303;BME280;11820;48.738;9.092;2023-09-19T00:50:32;95952.66;;;17.48;100.00
23303;BME280;11820;48.738;9.092;2023-09-19T00:52:58;95949.56;;;17.51;100.00
23303;BME280;11820;48.738;9.092;2023-09-19T00:55:25;95958.13;;;17.46;100.00
23303;BME280;11820;48.738;9.092;2023-09-19T00:57:51;95963.91;;;17.48;100.00
23303;BME280;11820;48.738;9.092;2023-09-19T01:00:17;95966.72;;;17.42;100.00
23303;BME280;11820;48.738;9.092;2023-09-19T01:02:44;95966.66;;;17.37;100.00
23303;BME280;11820;48.738;9.092;2023-09-19T01:05:10;95964.56;;;17.22;100.00
23303;BME280;11820;48.738;9.092;2023-09-19T01:07:36;95963.56;;;17.40;100.00
23303;BME280;11820;48.738;9.092;2023-09-19T01:10:06;95962.56;;;17.46;100.00
23303;BME280;11820;48.738;9.092;2023-09-19T01:15:51;95971.13;;;17.41;100.00
23303;BME280;11820;48.738;9.092;2023-09-19T01:18:47;95959.09;;;17.40;100.00
23303;BME280;11820;48.738;9.092;2023-09-19T01:21:27;95962.25;;;17.42;100.00
23303;BME280;11820;48.738;9.092;2023-09-19T01:29:48;95976.53;;;17.35;100.00
23303;BME280;11820;48.738;9.092;2023-09-19T01:32:18;95981.06;;;17.23;100.00
23303;BME280;11820;48.738;9.092;2023-09-19T01:34:52;95980.50;;;17.37;100.00
23303;BME280;11820;48.738;9.092;2023-09-19T01:37:19;95987.16;;;17.28;100.00
23303;BME280;11820;48.738;9.092;2023-09-19T01:39:50;95984.53;;;17.28;100.00
23303;BME280;11820;48.738;9.092;2023-09-19T01:42:57;95991.75;;;17.38;100.00
23303;BME280;11820;48.738;9.092;2023-09-19T01:45:50;95993.03;;;17.35;100.00
23303;BME280;11820;48.738;9.092;2023-09-19T01:48:46;95988.88;;;17.39;100.00
23303;BME280;11820;48.738;9.092;2023-09-19T01:51:21;95992.47;;;17.33;100.00
23303;BME280;11820;48.738;9.092;2023-09-19T01:53:55;95992.06;;;17.25;100.00
23303;BME280;11820;48.738;9.092;2023-09-19T01:56:30;96003.25;;;17.37;100.00
23303;BME280;11820;48.738;9.092;2023-09-19T01:59:04;96005.19;;;17.30;100.00
23303;BME280;11820;48.738;9.092;2023-09-19T02:01:31;96008.06;;;17.28;100.00
23303;BME280;11820;48.738;9.092;2023-09-19T02:03:57;96018.22;;;17.25;100.00
23303;BME280;11820;48.738;9.092;2023-09-19T02:06:23;96005.47;;;17.28;100.00
23303;BME280;11820;48.738;9.092;2023-09-19T02:08:50;96013.47;;;17.22;100.00
23303;BME280;11820;48.738;9.092;2023-09-19T02:11:15;96013.78;;;17.25;100.00
23303;BME280;11820;48.738;9.092;2023-09-19T02:13:41;96019.34;;;17.12;100.00
23303;BME280;11820;48.738;9.092;2023-09-19T02:16:07;96020.03;;;17.08;100.00
23303;BME280;11820;48.738;9.092;2023-09-19T02:18:34;96012.09;;;17.19;100.00
23303;BME280;11820;48.738;9.092;2023-09-19T02:21:01;96020.97;;;17.18;100.00
23303;BME280;11820;48.738;9.092;2023-09-19T02:23:26;96023.59;;;17.18;100.00
23303;BME280;11820;48.738;9.092;2023-09-19T02:25:55;96023.03;;;17.16;100.00
23303;BME280;11820;48.738;9.092;2023-09-19T02:28:23;96028.44;;;17.10;100.00
23303;BME280;11820;48.738;9.092;2023-09-19T02:30:48;96026.22;;;17.18;100.00
23303;BME280;11820;48.738;9.092;2023-09-19T02:33:14;96019.47;;;17.22;100.00
23303;BME280;11820;48.738;9.092;2023-09-19T02:35:40;96022.34;;;17.04;100.00
23303;BME280;11820;48.738;9.092;2023-09-19T02:38:05;96027.66;;;17.09;100.00
23303;BME280;11820;48.738;9.092;2023-09-19T02:40:33;96027.50;;;16.99;100.00
23303;BME280;11820;48.738;9.092;2023-09-19T02:43:01;96023.31;;;16.98;100.00
23303;BME280;11820;48.738;9.092;2023-09-19T02:45:27;96013.91;;;16.97;100.00
23303;BME280;11820;48.738;9.092;2023-09-19T02:47:53;96023.31;;;16.82;100.00
23303;BME280;11820;48.738;9.092;2023-09-19T02:50:18;96037.72;;;17.01;100.00
23303;BME280;11820;48.738;9.092;2023-09-19T02:52:44;96032.81;;;17.04;100.00
23303;BME280;11820;48.738;9.092;2023-09-19T02:55:12;96036.19;;;17.05;100.00
23303;BME280;11820;48.738;9.092;2023-09-19T02:57:39;96036.13;;;17.00;100.00
23303;BME280;11820;48.738;9.092;2023-09-19T03:00:08;96037.56;;;17.07;100.00
23303;BME280;11820;48.738;9.092;2023-09-19T03:02:37;96041.50;;;16.93;100.00
23303;BME280;11820;48.738;9.092;2023-09-19T03:05:05;96043.19;;;16.99;100.00
23303;BME280;11820;48.738;9.092;2023-09-19T03:07:31;96035.00;;;17.12;100.00
23303;BME280;11820;48.738;9.092;2023-09-19T03:09:56;96043.41;;;16.98;100.00
23303;BME280;11820;48.738;9.092;2023-09-19T03:12:21;96042.38;;;17.15;100.00
23303;BME280;11820;48.738;9.092;2023-09-19T03:14:47;96051.84;;;17.21;100.00
23303;BME280;11820;48.738;9.092;2023-09-19T03:17:13;96049.09;;;17.11;100.00
23303;BME280;11820;48.738;9.092;2023-09-19T03:19:40;96041.81;;;17.13;100.00
23303;BME280;11820;48.738;9.092;2023-09-19T03:22:06;96042.69;;;17.19;100.00
23303;BME280;11820;48.738;9.092;2023-09-19T03:24:32;96049.09;;;17.11;100.00
23303;BME280;11820;48.738;9.092;2023-09-19T03:26:58;96047.59;;;17.15;100.00
23303;BME280;11820;48.738;9.092;2023-09-19T03:29:23;96048.88;;;17.13;100.00
23303;BME280;11820;48.738;9.092;2023-09-19T03:31:49;96050.22;;;17.15;100.00
23303;BME280;11820;48.738;9.092;2023-09-19T03:34:14;96043.47;;;17.19;100.00
23303;BME280;11820;48.738;9.092;2023-09-19T03:36:39;96043.41;;;17.14;100.00
23303;BME280;11820;48.738;9.092;2023-09-19T03:39:06;96035.00;;;17.12;100.00
23303;BME280;11820;48.738;9.092;2023-09-19T03:41:31;96037.69;;;17.17;100.00
23303;BME280;11820;48.738;9.092;2023-09-19T03:43:58;96043.88;;;17.11;100.00
23303;BME280;11820;48.738;9.092;2023-09-19T03:46:23;96036.53;;;17.08;100.00
23303;BME280;11820;48.738;9.092;2023-09-19T03:48:52;96035.63;;;17.19;100.00
23303;BME280;11820;48.738;9.092;2023-09-19T03:51:19;96039.47;;;17.12;100.00
23303;BME280;11820;48.738;9.092;2023-09-19T03:53:44;96034.22;;;17.12;100.00
23303;BME280;11820;48.738;9.092;2023-09-19T03:56:10;96038.78;;;17.21;100.00
23303;BME280;11820;48.738;9.092;2023-09-19T03:58:35;96038.00;;;17.21;100.00
23303;BME280;11820;48.738;9.092;2023-09-19T04:01:04;96030.34;;;17.14;100.00
23303;BME280;11820;48.738;9.092;2023-09-19T04:03:30;96042.16;;;17.00;100.00
23303;BME280;11820;48.738;9.092;2023-09-19T04:06:01;96037.72;;;17.01;100.00
23303;BME280;11820;48.738;9.092;2023-09-19T04:08:26;96037.78;;;17.06;100.00
23303;BME280;11820;48.738;9.092;2023-09-19T04:10:52;96043.41;;;17.14;100.00
23303;BME280;11820;48.738;9.092;2023-09-19T04:13:18;96032.94;;;17.14;100.00
23303;BME280;11820;48.738;9.092;2023-09-19T04:15:43;96034.53;;;17.15;100.00
23303;BME280;11820;48.738;9.092;2023-09-19T04:18:11;96040.88;;;17.03;100.00
23303;BME280;11820;48.738;9.092;2023-09-19T04:20:37;96053.47;;;17.06;100.00
23303;BME280;11820;48.738;9.092;2023-09-19T04:23:02;96044.38;;;17.08;100.00
23303;BME280;11820;48.738;9.092;2023-09-19T04:25:27;96044.03;;;17.05;100.00
23303;BME280;11820;48.738;9.092;2023-09-19T04:27:53;96055.53;;;17.04;100.00
23303;BME280;11820;48.738;9.092;2023-09-19T04:30:18;96045.72;;;17.11;100.00
23303;BME280;11820;48.738;9.092;2023-09-19T04:32:44;96051.78;;;17.16;100.00
23303;BME280;11820;48.738;9.092;2023-09-19T04:35:10;96052.28;;;17.13;100.00
23303;BME280;11820;48.738;9.092;2023-09-19T04:37:39;96059.63;;;17.16;100.00
23303;BME280;11820;48.738;9.092;2023-09-19T04:40:10;96053.84;;;17.14;100.00
23303;BME280;11820;48.738;9.092;2023-09-19T04:42:40;96057.50;;;17.13;100.00
23303;BME280;11820;48.738;9.092;2023-09-19T04:45:06;96065.13;;;17.15;100.00
23303;BME280;11820;48.738;9.092;2023-09-19T04:47:32;96066.91;;;17.14;100.00
23303;BME280;11820;48.738;9.092;2023-09-19T04:49:57;96065.50;;;17.23;100.00
23303;BME280;11820;48.738;9.092;2023-09-19T04:52:24;96071.69;;;17.01;100.00
23303;BME280;11820;48.738;9.092;2023-09-19T04:54:49;96081.50;;;17.10;100.00
23303;BME280;11820;48.738;9.092;2023-09-19T04:57:14;96079.13;;;17.25;100.00
23303;BME280;11820;48.738;9.092;2023-09-19T04:59:41;96091.94;;;17.10;100.00
23303;BME280;11820;48.738;9.092;2023-09-19T05:02:06;96093.06;;;17.14;100.00
23303;BME280;11820;48.738;9.092;2023-09-19T05:04:33;96093.28;;;16.96;100.00
23303;BME280;11820;48.738;9.092;2023-09-19T05:06:58;96098.69;;;17.06;100.00
23303;BME280;11820;48.738;9.092;2023-09-19T05:09:26;96111.81;;;17.11;100.00
23303;BME280;11820;48.738;9.092;2023-09-19T05:11:51;96108.09;;;17.24;100.00
23303;BME280;11820;48.738;9.092;2023-09-19T05:14:17;96105.66;;;17.17;100.00
23303;BME280;11820;48.738;9.092;2023-09-19T05:16:43;96096.78;;;17.02;100.00
23303;BME280;11820;48.738;9.092;2023-09-19T05:19:08;96090.91;;;16.95;100.00
23303;BME280;11820;48.738;9.092;2023-09-19T05:21:36;96087.59;;;16.99;100.00
23303;BME280;11820;48.738;9.092;2023-09-19T05:24:06;96099.16;;;16.87;100.00
23303;BME280;11820;48.738;9.092;2023-09-19T05:26:34;96101.03;;;16.91;100.00
23303;BME280;11820;48.738;9.092;2023-09-19T05:29:00;96103.72;;;16.96;100.00
23303;BME280;11820;48.738;9.092;2023-09-19T05:31:27;96099.69;;;16.72;100.00
23303;BME280;11820;48.738;9.092;2023-09-19T05:33:52;96093.81;;;16.82;100.00
23303;BME280;11820;48.738;9.092;2023-09-19T05:36:19;96094.63;;;16.99;100.00
23303;BME280;11820;48.738;9.092;2023-09-19T05:38:45;96097.59;;;17.02;100.00
23303;BME280;11820;48.738;9.092;2023-09-19T05:41:10;96104.75;;;16.95;100.00
23303;BME280;11820;48.738;9.092;2023-09-19T05:43:39;96111.13;;;16.99;100.00
23303;BME280;11820;48.738;9.092;2023-09-19T05:46:06;96115.63;;;17.20;100.00
23303;BME280;11820;48.738;9.092;2023-09-19T05:48:33;96128.63;;;17.15;100.00
23303;BME280;11820;48.738;9.092;2023-09-19T05:50:58;96137.31;;;17.04;100.00
23303;BME280;11820;48.738;9.092;2023-09-19T05:53:23;96150.94;;;16.90;100.00
23303;BME280;11820;48.738;9.092;2023-09-19T05:55:49;96157.13;;;17.00;100.00
23303;BME280;11820;48.738;9.092;2023-09-19T05:58:14;96157.69;;;17.02;100.00
23303;BME280;11820;48.738;9.092;2023-09-19T06:00:42;96156.94;;;17.07;100.00
23303;BME280;11820;48.738;9.092;2023-09-19T06:03:09;96160.38;;;17.07;100.00
23303;BME280;11820;48.738;9.092;2023-09-19T06:05:35;96161.84;;;16.87;100.00
23303;BME280;11820;48.738;9.092;2023-09-19T06:08:00;96165.78;;;16.89;100.00
23303;BME280;11820;48.738;9.092;2023-09-19T06:10:26;96168.31;;;16.84;100.00
23303;BME280;11820;48.738;9.092;2023-09-19T06:12:57;96181.41;;;16.33;100.00
23303;BME280;11820;48.738;9.092;2023-09-19T06:15:23;96175.91;;;16.58;100.00
23303;BME280;11820;48.738;9.092;2023-09-19T06:17:52;96176.59;;;16.65;100.00
23303;BME280;11820;48.738;9.092;2023-09-19T06:20:22;96183.44;;;16.54;100.00
23303;BME280;11820;48.738;9.092;2023-09-19T06:22:48;96167.44;;;16.51;100.00
23303;BME280;11820;48.738;9.092;2023-09-19T06:25:15;96167.22;;;16.80;100.00
23303;BME280;11820;48.738;9.092;2023-09-19T06:27:51;96176.34;;;16.66;100.00
23303;BME280;11820;48.738;9.092;2023-09-19T06:30:20;96181.47;;;16.61;100.00
23303;BME280;11820;48.738;9.092;2023-09-19T06:32:45;96181.44;;;16.73;100.00
23303;BME280;11820;48.738;9.092;2023-09-19T06:35:15;96182.63;;;16.54;100.00
23303;BME280;11820;48.738;9.092;2023-09-19T06:37:42;96184.94;;;16.78;100.00
23303;BME280;11820;48.738;9.092;2023-09-19T06:42:39;96189.34;;;16.78;100.00
23303;BME280;11820;48.738;9.092;2023-09-19T06:45:05;96194.34;;;16.79;100.00
23303;BME280;11820;48.738;9.092;2023-09-19T06:47:30;96185.25;;;16.82;100.00
23303;BME280;11820;48.738;9.092;2023-09-19T06:49:56;96190.06;;;16.73;100.00
23303;BME280;11820;48.738;9.092;2023-09-19T06:52:21;96189.09;;;16.91;100.00
23303;BME280;11820;48.738;9.092;2023-09-19T06:54:47;96181.97;;;17.03;100.00
23303;BME280;11820;48.738;9.092;2023-09-19T06:57:15;96189.75;;;17.14;100.00
23303;BME280;11820;48.738;9.092;2023-09-19T06:59:41;96190.38;;;17.21;100.00
23303;BME280;11820;48.738;9.092;2023-09-19T07:02:06;96194.97;;;17.14;100.00
23303;BME280;11820;48.738;9.092;2023-09-19T07:04:31;96206.75;;;17.00;100.00
23303;BME280;11820;48.738;9.092;2023-09-19T07:06:57;96215.19;;;17.19;100.00
23303;BME280;11820;48.738;9.092;2023-09-19T07:09:23;96218.69;;;17.24;100.00
23303;BME280;11820;48.738;9.092;2023-09-19T07:11:49;96220.09;;;17.15;100.00
23303;BME280;11820;48.738;9.092;2023-09-19T07:14:16;96235.72;;;17.27;100.00
23303;BME280;11820;48.738;9.092;2023-09-19T07:16:41;96226.97;;;17.21;100.00
23303;BME280;11820;48.738;9.092;2023-09-19T07:19:09;96233.78;;;17.22;100.00
23303;BME280;11820;48.738;9.092;2023-09-19T07:21:35;96233.31;;;17.37;100.00
23303;BME280;11820;48.738;9.092;2023-09-19T07:24:04;96239.88;;;17.39;100.00
23303;BME280;11820;48.738;9.092;2023-09-19T07:26:29;96240.34;;;17.36;100.00
23303;BME280;11820;48.738;9.092;2023-09-19T07:28:56;96233.78;;;17.22;100.00
23303;BME280;11820;48.738;9.092;2023-09-19T07:31:22;96234.94;;;17.26;100.00
23303;BME280;11820;48.738;9.092;2023-09-19T07:33:48;96238.38;;;17.15;100.00
23303;BME280;11820;48.738;9.092;2023-09-19T07:36:13;96239.59;;;17.24;100.00
23303;BME280;11820;48.738;9.092;2023-09-19T07:38:40;96245.28;;;17.21;100.00
23303;BME280;11820;48.738;9.092;2023-09-19T07:41:06;96250.69;;;17.31;100.00
23303;BME280;11820;48.738;9.092;2023-09-19T07:43:32;96253.22;;;17.26;100.00
23303;BME280;11820;48.738;9.092;2023-09-19T07:46:03;96258.88;;;17.35;100.00
23303;BME280;11820;48.738;9.092;2023-09-19T07:48:28;96250.81;;;17.36;100.00
23303;BME280;11820;48.738;9.092;2023-09-19T07:50:53;96245.44;;;17.43;100.00
23303;BME280;11820;48.738;9.092;2023-09-19T07:53:20;96254.13;;;17.48;100.00
23303;BME280;11820;48.738;9.092;2023-09-19T07:55:45;96250.81;;;17.53;100.00
23303;BME280;11820;48.738;9.092;2023-09-19T07:58:13;96251.63;;;17.53;100.00
23303;BME280;11820;48.738;9.092;2023-09-19T08:00:38;96255.91;;;17.59;100.00
23303;BME280;11820;48.738;9.092;2023-09-19T08:03:04;96261.75;;;17.50;100.00
23303;BME280;11820;48.738;9.092;2023-09-19T08:05:30;96262.72;;;17.60;100.00
23303;BME280;11820;48.738;9.092;2023-09-19T08:07:58;96262.25;;;17.63;100.00
23303;BME280;11820;48.738;9.092;2023-09-19T08:10:24;96268.19;;;17.59;100.00
23303;BME280;11820;48.738;9.092;2023-09-19T08:12:52;96273.13;;;17.55;100.00
23303;BME280;11820;48.738;9.092;2023-09-19T08:15:23;96270.66;;;17.65;100.00
23303;BME280;11820;48.738;9.092;2023-09-19T08:17:49;96269.06;;;17.64;100.00
23303;BME280;11820;48.738;9.092;2023-09-19T08:20:15;96273.13;;;17.72;100.00
23303;BME280;11820;48.738;9.092;2023-09-19T08:22:51;96278.75;;;17.80;100.00
23303;BME280;11820;48.738;9.092;2023-09-19T08:25:18;96285.88;;;17.68;100.00
23303;BME280;11820;48.738;9.092;2023-09-19T08:27:44;96295.56;;;17.84;100.00
23303;BME280;11820;48.738;9.092;2023-09-19T08:30:14;96290.81;;;17.81;100.00
23303;BME280;11820;48.738;9.092;2023-09-19T08:32:39;96294.84;;;18.05;100.00
23303;BME280;11820;48.738;9.092;2023-09-19T08:35:06;96289.75;;;18.15;100.00
23303;BME280;11820;48.738;9.092;2023-09-19T08:37:32;96284.25;;;18.28;100.00
23303;BME280;11820;48.738;9.092;2023-09-19T08:39:57;96296.34;;;18.50;100.00
23303;BME280;11820;48.738;9.092;2023-09-19T08:42:23;96303.59;;;18.27;100.00
23303;BME280;11820;48.738;9.092;2023-09-19T08:44:50;96298.50;;;18.37;100.00
23303;BME280;11820;48.738;9.092;2023-09-19T08:47:16;96299.69;;;18.13;100.00
23303;BME280;11820;48.738;9.092;2023-09-19T08:50:19;96304.91;;;18.13;100.00
23303;BME280;11820;48.738;9.092;2023-09-19T08:52:46;96307.53;;;18.13;100.00
23303;BME280;11820;48.738;9.092;2023-09-19T08:55:13;96315.25;;;18.03;100.00
23303;BME280;11820;48.738;9.092;2023-09-19T08:57:45;96311.88;;;18.24;100.00
23303;BME280;11820;48.738;9.092;2023-09-19T09:00:14;96306.81;;;18.17;100.00
23303;BME280;11820;48.738;9.092;2023-09-19T09:02:43;96310.56;;;18.21;100.00
23303;BME280;11820;48.738;9.092;2023-09-19T09:05:09;96308.72;;;18.22;100.00
23303;BME280;11820;48.738;9.092;2023-09-19T09:07:37;96309.63;;;18.27;100.00
23303;BME280;11820;48.738;9.092;2023-09-19T09:10:03;96314.75;;;18.39;100.00
23303;BME280;11820;48.738;9.092;2023-09-19T09:12:29;96313.16;;;18.54;100.00
23303;BME280;11820;48.738;9.092;2023-09-19T09:14:55;96305.00;;;18.72;100.00
23303;BME280;11820;48.738;9.092;2023-09-19T09:17:25;96310.91;;;18.63;100.00
23303;BME280;11820;48.738;9.092;2023-09-19T09:19:53;96319.69;;;18.52;100.00
23303;BME280;11820;48.738;9.092;2023-09-19T09:22:19;96313.78;;;18.45;100.00
23303;BME280;11820;48.738;9.092;2023-09-19T09:24:58;96319.44;;;18.37;100.00
23303;BME280;11820;48.738;9.092;2023-09-19T09:27:24;96314.66;;;18.50;100.00
23303;BME280;11820;48.738;9.092;2023-09-19T09:29:51;96310.78;;;18.36;100.00
23303;BME280;11820;48.738;9.092;2023-09-19T09:32:34;96317.78;;;18.69;100.00
23303;BME280;11820;48.738;9.092;2023-09-19T09:35:06;96319.75;;;19.00;100.00
23303;BME280;11820;48.738;9.092;2023-09-19T09:37:34;96327.38;;;18.80;100.00
23303;BME280;11820;48.738;9.092;2023-09-19T09:40:03;96320.19;;;18.92;100.00
23303;BME280;11820;48.738;9.092;2023-09-19T09:42:41;96314.41;;;18.90;100.00
23303;BME280;11820;48.738;9.092;2023-09-19T09:45:22;96319.94;;;19.15;100.00
23303;BME280;11820;48.738;9.092;2023-09-19T09:48:03;96320.06;;;19.25;100.00
23303;BME280;11820;48.738;9.092;2023-09-19T09:50:36;96320.22;;;19.35;100.00
23303;BME280;11820;48.738;9.092;2023-09-19T09:55:59;96316.94;;;19.75;100.00
23303;BME280;11820;48.738;9.092;2023-09-19T09:58:25;96315.66;;;19.78;100.00
23303;BME280;11820;48.738;9.092;2023-09-19T10:00:58;96330.16;;;19.85;100.00
23303;BME280;11820;48.738;9.092;2023-09-19T10:03:40;96318.63;;;19.86;100.00
23303;BME280;11820;48.738;9.092;2023-09-19T10:06:13;96315.16;;;19.81;100.00
23303;BME280;11820;48.738;9.092;2023-09-19T10:09:07;96327.31;;;19.39;100.00
23303;BME280;11820;48.738;9.092;2023-09-19T10:11:41;96327.09;;;19.41;100.00
23303;BME280;11820;48.738;9.092;2023-09-19T10:14:08;96315.56;;;19.68;100.00
23303;BME280;11820;48.738;9.092;2023-09-19T10:16:42;96311.28;;;19.88;100.00
23303;BME280;11820;48.738;9.092;2023-09-19T10:19:11;96316.44;;;20.41;100.00
23303;BME280;11820;48.738;9.092;2023-09-19T10:21:41;96305.41;;;20.39;100.00
23303;BME280;11820;48.738;9.092;2023-09-19T10:24:08;96307.38;;;21.15;100.00
23303;BME280;11820;48.738;9.092;2023-09-19T10:26:35;96304.75;;;21.20;100.00
23303;BME280;11820;48.738;9.092;2023-09-19T10:29:01;96296.22;;;21.64;100.00
23303;BME280;11820;48.738;9.092;2023-09-19T10:31:29;96301.63;;;21.28;100.00
23303;BME280;11820;48.738;9.092;2023-09-19T10:34:02;96294.13;;;21.86;100.00
23303;BME280;11820;48.738;9.092;2023-09-19T10:36:32;96289.38;;;21.73;100.00
23303;BME280;11820;48.738;9.092;2023-09-19T10:38:59;96285.78;;;23.03;100.00
23303;BME280;11820;48.738;9.092;2023-09-19T10:41:29;96289.91;;;22.15;100.00
23303;BME280;11820;48.738;9.092;2023-09-19T10:43:56;96295.94;;;24.16;99.74
23303;BME280;11820;48.738;9.092;2023-09-19T10:46:22;96301.94;;;26.36;80.05
23303;BME280;11820;48.738;9.092;2023-09-19T10:48:47;96300.34;;;26.66;75.39
23303;BME280;11820;48.738;9.092;2023-09-19T10:51:18;96275.50;;;32.14;56.58
23303;BME280;11820;48.738;9.092;2023-09-19T10:53:50;96297.09;;;29.77;54.51
23303;BME280;11820;48.738;9.092;2023-09-19T10:56:36;96295.53;;;26.68;62.47
23303;BME280;11820;48.738;9.092;2023-09-19T10:59:15;96316.94;;;25.11;64.80
23303;BME280;11820;48.738;9.092;2023-09-19T11:07:08;96291.03;;;30.64;56.67
23303;BME280;11820;48.738;9.092;2023-09-19T11:09:50;96302.81;;;29.36;56.46
23303;BME280;11820;48.738;9.092;2023-09-19T11:14:56;96283.91;;;33.26;51.93
23303;BME280;11820;48.738;9.092;2023-09-19T11:17:35;96280.44;;;33.37;49.42
23303;BME280;11820;48.738;9.092;2023-09-19T11:30:44;96283.72;;;26.48;56.69
23303;BME280;11820;48.738;9.092;2023-09-19T11:46:27;96262.50;;;31.72;52.35
23303;BME280;11820;48.738;9.092;2023-09-19T11:48:53;96283.75;;;25.60;57.45
23303;BME280;11820;48.738;9.092;2023-09-19T11:51:20;96269.63;;;32.21;49.70
23303;BME280;11820;48.738;9.092;2023-09-19T11:53:52;96263.31;;;33.30;43.53
23303;BME280;11820;48.738;9.092;2023-09-19T11:56:20;96270.53;;;30.85;48.08
23303;BME280;11820;48.738;9.092;2023-09-19T11:58:49;96263.66;;;31.05;46.40
23303;BME280;11820;48.738;9.092;2023-09-19T12:01:21;96275.50;;;25.99;55.08
23303;BME280;11820;48.738;9.092;2023-09-19T12:03:48;96280.97;;;24.63;58.66
23303;BME280;11820;48.738;9.092;2023-09-19T12:06:18;96273.88;;;24.02;60.88
23303;BME280;11820;48.738;9.092;2023-09-19T12:08:44;96272.13;;;25.19;58.66
23303;BME280;11820;48.738;9.092;2023-09-19T12:11:13;96269.97;;;24.51;60.37
23303;BME280;11820;48.738;9.092;2023-09-19T12:13:43;96268.44;;;24.45;61.33
23303;BME280;11820;48.738;9.092;2023-09-19T12:16:19;96259.38;;;26.41;58.94
23303;BME280;11820;48.738;9.092;2023-09-19T12:18:50;96248.56;;;29.92;54.30
23303;BME280;11820;48.738;9.092;2023-09-19T12:21:28;96240.19;;;36.72;41.44
23303;BME280;11820;48.738;9.092;2023-09-19T12:26:30;96234.06;;;38.41;35.10
23303;BME280;11820;48.738;9.092;2023-09-19T12:28:59;96252.00;;;30.80;42.22
23303;BME280;11820;48.738;9.092;2023-09-19T12:31:26;96241.53;;;28.28;47.54
23303;BME280;11820;48.738;9.092;2023-09-19T12:33:55;96246.84;;;28.50;52.43
23303;BME280;11820;48.738;9.092;2023-09-19T12:36:23;96237.53;;;26.89;51.46
23303;BME280;11820;48.738;9.092;2023-09-19T12:38:56;96228.25;;;35.37;41.06
23303;BME280;11820;48.738;9.092;2023-09-19T12:41:24;96252.75;;;26.11;50.68
23303;BME280;11820;48.738;9.092;2023-09-19T12:43:53;96236.13;;;25.18;53.67
23303;BME280;11820;48.738;9.092;2023-09-19T12:46:22;96222.63;;;32.56;44.87
23303;BME280;11820;48.738;9.092;2023-09-19T12:49:19;96211.59;;;39.24;36.43
23303;BME280;11820;48.738;9.092;2023-09-19T12:51:48;96221.63;;;33.32;39.24
23303;BME280;11820;48.738;9.092;2023-09-19T12:54:14;96228.41;;;27.44;48.85
23303;BME280;11820;48.738;9.092;2023-09-19T12:56:43;96217.59;;;27.62;50.47
23303;BME280;11820;48.738;9.092;2023-09-19T12:59:11;96210.75;;;29.90;45.25
23303;BME280;11820;48.738;9.092;2023-09-19T13:01:39;96220.63;;;33.01;43.86
23303;BME280;11820;48.738;9.092;2023-09-19T13:04:12;96220.53;;;27.96;48.75
23303;BME280;11820;48.738;9.092;2023-09-19T13:06:50;96210.41;;;36.05;39.21
23303;BME280;11820;48.738;9.092;2023-09-19T13:09:17;96224.47;;;27.41;47.45
23303;BME280;11820;48.738;9.092;2023-09-19T13:11:43;96226.31;;;25.56;52.51
23303;BME280;11820;48.738;9.092;2023-09-19T13:14:17;96229.56;;;26.75;53.98
23303;BME280;11820;48.738;9.092;2023-09-19T13:22:05;96228.09;;;24.35;57.80
23303;BME280;11820;48.738;9.092;2023-09-19T13:24:50;96228.78;;;23.88;60.97
23303;BME280;11820;48.738;9.092;2023-09-19T13:27:16;96218.53;;;23.43;63.38
23303;BME280;11820;48.738;9.092;2023-09-19T13:29:42;96219.75;;;23.17;64.14
23303;BME280;11820;48.738;9.092;2023-09-19T13:32:07;96226.75;;;23.37;64.63
23303;BME280;11820;48.738;9.092;2023-09-19T13:34:36;96219.38;;;22.86;65.49
23303;BME280;11820;48.738;9.092;2023-09-19T13:37:03;96204.25;;;24.63;63.60
23303;BME280;11820;48.738;9.092;2023-09-19T13:39:29;96224.22;;;24.74;60.39
23303;BME280;11820;48.738;9.092;2023-09-19T13:41:55;96208.63;;;24.49;60.28
23303;BME280;11820;48.738;9.092;2023-09-19T13:44:20;96217.56;;;24.01;62.27
23303;BME280;11820;48.738;9.092;2023-09-19T13:46:45;96218.63;;;23.28;62.44
23303;BME280;11820;48.738;9.092;2023-09-19T13:49:11;96216.81;;;23.24;63.83
23303;BME280;11820;48.738;9.092;2023-09-19T13:51:37;96207.25;;;22.80;64.94
23303;BME280;11820;48.738;9.092;2023-09-19T13:54:02;96213.22;;;22.22;66.12